sensor_id;sensor_type;location;lat;lon;timestamp;temperature;humidity
12436;DHT22;6282;51.440;6.938;2022-07-23T00:01:54;17.00;99.90
12436;DHT22;6282;51.440;6.938;2022-07-23T00:04:21;16.90;99.90
12436;DHT22;6282;51.440;6.938;2022-07-23T00:06:48;16.90;99.90
12436;DHT22;6282;51.440;6.938;2022-07-23T00:09:15;16.90;99.90
12436;DHT22;6282;51.440;6.938;2022-07-23T00:11:43;17.00;99.90
12436;DHT22;6282;51.440;6.938;2022-07-23T00:14:10;17.00;99.90
12436;DHT22;6282;51.440;6.938;2022-07-23T00:16:37;17.00;99.90
12436;DHT22;6282;51.440;6.938;2022-07-23T00:19:04;17.20;99.90
12436;DHT22;6282;51.440;6.938;2022-07-23T00:21:30;17.00;99.90
12436;DHT22;6282;51.440;6.938;2022-07-23T00:23:57;16.80;99.90
12436;DHT22;6282;51.440;6.938;2022-07-23T00:26:24;16.80;99.90
12436;DHT22;6282;51.440;6.938;2022-07-23T00:28:52;16.70;99.90
12436;DHT22;6282;51.440;6.938;2022-07-23T00:31:19;16.60;99.90
12436;DHT22;6282;51.440;6.938;2022-07-23T00:33:46;16.70;99.90
12436;DHT22;6282;51.440;6.938;2022-07-23T00:36:13;16.80;99.90
12436;DHT22;6282;51.440;6.938;2022-07-23T00:38:40;16.90;99.90
12436;DHT22;6282;51.440;6.938;2022-07-23T00:41:07;16.80;99.90
12436;DHT22;6282;51.440;6.938;2022-07-23T00:43:34;16.70;99.90
12436;DHT22;6282;51.440;6.938;2022-07-23T00:46:02;16.80;99.90
12436;DHT22;6282;51.440;6.938;2022-07-23T00:48:29;16.70;99.90
12436;DHT22;6282;51.440;6.938;2022-07-23T00:50:56;16.80;99.90
12436;DHT22;6282;51.440;6.938;2022-07-23T00:53:23;16.80;99.90
12436;DHT22;6282;51.440;6.938;2022-07-23T00:55:50;16.80;99.90
12436;DHT22;6282;51.440;6.938;2022-07-23T00:58:17;16.80;99.90
12436;DHT22;6282;51.440;6.938;2022-07-23T01:00:45;16.90;99.90
12436;DHT22;6282;51.440;6.938;2022-07-23T01:03:13;16.90;99.90
12436;DHT22;6282;51.440;6.938;2022-07-23T01:05:40;16.80;99.90
12436;DHT22;6282;51.440;6.938;2022-07-23T01:08:07;16.90;99.90
12436;DHT22;6282;51.440;6.938;2022-07-23T01:10:34;16.70;99.90
12436;DHT22;6282;51.440;6.938;2022-07-23T01:13:03;16.70;99.90
12436;DHT22;6282;51.440;6.938;2022-07-23T01:15:30;16.80;99.90
12436;DHT22;6282;51.440;6.938;2022-07-23T01:17:57;16.80;99.90
12436;DHT22;6282;51.440;6.938;2022-07-23T01:20:26;16.80;99.90
12436;DHT22;6282;51.440;6.938;2022-07-23T01:22:54;16.90;99.90
12436;DHT22;6282;51.440;6.938;2022-07-23T01:25:22;16.80;99.90
12436;DHT22;6282;51.440;6.938;2022-07-23T01:27:49;16.70;99.90
12436;DHT22;6282;51.440;6.938;2022-07-23T01:30:17;16.60;99.90
12436;DHT22;6282;51.440;6.938;2022-07-23T01:32:44;16.70;99.90
12436;DHT22;6282;51.440;6.938;2022-07-23T01:35:11;16.70;99.90
12436;DHT22;6282;51.440;6.938;2022-07-23T01:37:38;16.80;99.90
12436;DHT22;6282;51.440;6.938;2022-07-23T01:40:07;16.80;99.90
12436;DHT22;6282;51.440;6.938;2022-07-23T01:42:34;16.90;99.90
12436;DHT22;6282;51.440;6.938;2022-07-23T01:45:02;16.80;99.90
12436;DHT22;6282;51.440;6.938;2022-07-23T01:47:29;16.80;99.90
12436;DHT22;6282;51.440;6.938;2022-07-23T01:49:56;16.80;99.90
12436;DHT22;6282;51.440;6.938;2022-07-23T01:52:23;16.70;99.90
12436;DHT22;6282;51.440;6.938;2022-07-23T01:54:50;16.70;99.90
12436;DHT22;6282;51.440;6.938;2022-07-23T01:57:18;16.70;99.90
12436;DHT22;6282;51.440;6.938;2022-07-23T01:59:45;16.80;99.90
12436;DHT22;6282;51.440;6.938;2022-07-23T02:02:12;16.70;99.90
12436;DHT22;6282;51.440;6.938;2022-07-23T02:04:39;16.80;99.90
12436;DHT22;6282;51.440;6.938;2022-07-23T02:07:06;16.80;99.90
12436;DHT22;6282;51.440;6.938;2022-07-23T02:09:33;16.70;99.90
12436;DHT22;6282;51.440;6.938;2022-07-23T02:12:00;16.70;99.90
12436;DHT22;6282;51.440;6.938;2022-07-23T02:14:28;16.70;99.90
12436;DHT22;6282;51.440;6.938;2022-07-23T02:16:55;16.70;99.90
12436;DHT22;6282;51.440;6.938;2022-07-23T02:19:22;16.60;99.90
12436;DHT22;6282;51.440;6.938;2022-07-23T02:21:49;16.50;99.90
12436;DHT22;6282;51.440;6.938;2022-07-23T02:24:16;16.50;99.90
12436;DHT22;6282;51.440;6.938;2022-07-23T02:26:43;16.60;99.90
12436;DHT22;6282;51.440;6.938;2022-07-23T02:29:10;16.60;99.90
12436;DHT22;6282;51.440;6.938;2022-07-23T02:31:38;16.40;99.90
12436;DHT22;6282;51.440;6.938;2022-07-23T02:34:05;16.40;99.90
12436;DHT22;6282;51.440;6.938;2022-07-23T02:36:32;16.40;99.90
12436;DHT22;6282;51.440;6.938;2022-07-23T02:38:59;16.40;99.90
12436;DHT22;6282;51.440;6.938;2022-07-23T02:41:26;16.40;99.90
12436;DHT22;6282;51.440;6.938;2022-07-23T02:43:53;16.30;99.90
12436;DHT22;6282;51.440;6.938;2022-07-23T02:46:20;16.30;99.90
12436;DHT22;6282;51.440;6.938;2022-07-23T02:48:48;16.40;99.90
12436;DHT22;6282;51.440;6.938;2022-07-23T02:51:15;16.40;99.90
12436;DHT22;6282;51.440;6.938;2022-07-23T02:53:42;16.20;99.90
12436;DHT22;6282;51.440;6.938;2022-07-23T02:56:09;16.40;99.90
12436;DHT22;6282;51.440;6.938;2022-07-23T02:58:36;16.30;99.90
12436;DHT22;6282;51.440;6.938;2022-07-23T03:01:03;16.20;99.90
12436;DHT22;6282;51.440;6.938;2022-07-23T03:03:30;16.10;99.90
12436;DHT22;6282;51.440;6.938;2022-07-23T03:05:59;16.10;99.90
12436;DHT22;6282;51.440;6.938;2022-07-23T03:08:26;16.40;99.90
12436;DHT22;6282;51.440;6.938;2022-07-23T03:10:53;16.40;99.90
12436;DHT22;6282;51.440;6.938;2022-07-23T03:13:20;16.30;99.90
12436;DHT22;6282;51.440;6.938;2022-07-23T03:15:47;16.30;99.90
12436;DHT22;6282;51.440;6.938;2022-07-23T03:18:14;16.30;99.90
12436;DHT22;6282;51.440;6.938;2022-07-23T03:20:41;16.20;99.90
12436;DHT22;6282;51.440;6.938;2022-07-23T03:23:09;16.10;99.90
12436;DHT22;6282;51.440;6.938;2022-07-23T03:25:36;16.10;99.90
12436;DHT22;6282;51.440;6.938;2022-07-23T03:28:03;16.00;99.90
12436;DHT22;6282;51.440;6.938;2022-07-23T03:30:30;16.00;99.90
12436;DHT22;6282;51.440;6.938;2022-07-23T03:32:57;16.10;99.90
12436;DHT22;6282;51.440;6.938;2022-07-23T03:35:24;16.00;99.90
12436;DHT22;6282;51.440;6.938;2022-07-23T03:37:59;16.00;99.90
12436;DHT22;6282;51.440;6.938;2022-07-23T03:40:28;15.90;99.90
12436;DHT22;6282;51.440;6.938;2022-07-23T03:42:54;15.90;99.90
12436;DHT22;6282;51.440;6.938;2022-07-23T03:45:21;15.90;99.90
12436;DHT22;6282;51.440;6.938;2022-07-23T03:47:48;15.80;99.90
12436;DHT22;6282;51.440;6.938;2022-07-23T03:50:15;15.70;99.90
12436;DHT22;6282;51.440;6.938;2022-07-23T03:52:42;15.70;99.90
12436;DHT22;6282;51.440;6.938;2022-07-23T03:55:09;15.60;99.90
12436;DHT22;6282;51.440;6.938;2022-07-23T03:57:37;15.60;99.90
12436;DHT22;6282;51.440;6.938;2022-07-23T04:00:06;15.60;99.90
12436;DHT22;6282;51.440;6.938;2022-07-23T04:02:34;15.50;99.90
12436;DHT22;6282;51.440;6.938;2022-07-23T04:05:01;15.60;99.90
12436;DHT22;6282;51.440;6.938;2022-07-23T04:07:28;15.60;99.90
12436;DHT22;6282;51.440;6.938;2022-07-23T04:09:55;15.60;99.90
12436;DHT22;6282;51.440;6.938;2022-07-23T04:12:22;15.50;99.90
12436;DHT22;6282;51.440;6.938;2022-07-23T04:14:50;15.50;99.90
12436;DHT22;6282;51.440;6.938;2022-07-23T04:17:17;15.60;99.90
12436;DHT22;6282;51.440;6.938;2022-07-23T04:19:44;15.60;99.90
12436;DHT22;6282;51.440;6.938;2022-07-23T04:22:11;15.50;99.90
12436;DHT22;6282;51.440;6.938;2022-07-23T04:24:39;15.40;99.90
12436;DHT22;6282;51.440;6.938;2022-07-23T04:27:06;15.50;99.90
12436;DHT22;6282;51.440;6.938;2022-07-23T04:29:32;15.60;99.90
12436;DHT22;6282;51.440;6.938;2022-07-23T04:32:01;15.70;99.90
12436;DHT22;6282;51.440;6.938;2022-07-23T04:34:28;15.60;99.90
12436;DHT22;6282;51.440;6.938;2022-07-23T04:36:55;15.60;99.90
12436;DHT22;6282;51.440;6.938;2022-07-23T04:39:22;15.60;99.90
12436;DHT22;6282;51.440;6.938;2022-07-23T04:41:49;15.70;99.90
12436;DHT22;6282;51.440;6.938;2022-07-23T04:44:16;15.80;99.90
12436;DHT22;6282;51.440;6.938;2022-07-23T04:46:42;15.70;99.90
12436;DHT22;6282;51.440;6.938;2022-07-23T04:49:11;15.60;99.90
12436;DHT22;6282;51.440;6.938;2022-07-23T04:51:38;15.60;99.90
12436;DHT22;6282;51.440;6.938;2022-07-23T04:54:04;15.70;99.90
12436;DHT22;6282;51.440;6.938;2022-07-23T04:56:31;15.80;99.90
12436;DHT22;6282;51.440;6.938;2022-07-23T04:58:58;15.90;99.90
12436;DHT22;6282;51.440;6.938;2022-07-23T05:01:25;16.00;99.90
12436;DHT22;6282;51.440;6.938;2022-07-23T05:03:52;16.00;99.90
12436;DHT22;6282;51.440;6.938;2022-07-23T05:06:20;15.90;99.90
12436;DHT22;6282;51.440;6.938;2022-07-23T05:08:47;16.00;99.90
12436;DHT22;6282;51.440;6.938;2022-07-23T05:11:14;16.10;99.90
12436;DHT22;6282;51.440;6.938;2022-07-23T05:13:41;16.10;99.90
12436;DHT22;6282;51.440;6.938;2022-07-23T05:16:08;16.00;99.90
12436;DHT22;6282;51.440;6.938;2022-07-23T05:18:35;16.00;99.90
12436;DHT22;6282;51.440;6.938;2022-07-23T05:21:01;16.20;99.90
12436;DHT22;6282;51.440;6.938;2022-07-23T05:23:30;16.30;99.90
12436;DHT22;6282;51.440;6.938;2022-07-23T05:25:57;16.20;99.90
12436;DHT22;6282;51.440;6.938;2022-07-23T05:28:23;16.20;99.90
12436;DHT22;6282;51.440;6.938;2022-07-23T05:30:50;16.40;99.90
12436;DHT22;6282;51.440;6.938;2022-07-23T05:33:18;16.40;99.90
12436;DHT22;6282;51.440;6.938;2022-07-23T05:35:45;16.50;99.90
12436;DHT22;6282;51.440;6.938;2022-07-23T05:38:12;16.50;99.90
12436;DHT22;6282;51.440;6.938;2022-07-23T05:40:40;16.40;99.90
12436;DHT22;6282;51.440;6.938;2022-07-23T05:43:07;16.80;99.90
12436;DHT22;6282;51.440;6.938;2022-07-23T05:45:34;16.60;99.90
12436;DHT22;6282;51.440;6.938;2022-07-23T05:48:01;16.70;99.90
12436;DHT22;6282;51.440;6.938;2022-07-23T05:50:28;16.80;99.90
12436;DHT22;6282;51.440;6.938;2022-07-23T05:52:55;16.90;99.90
12436;DHT22;6282;51.440;6.938;2022-07-23T05:55:22;16.80;99.90
12436;DHT22;6282;51.440;6.938;2022-07-23T05:57:50;17.00;99.90
12436;DHT22;6282;51.440;6.938;2022-07-23T06:00:17;16.80;99.90
12436;DHT22;6282;51.440;6.938;2022-07-23T06:02:44;16.80;99.90
12436;DHT22;6282;51.440;6.938;2022-07-23T06:05:11;17.00;99.90
12436;DHT22;6282;51.440;6.938;2022-07-23T06:07:38;17.10;99.90
12436;DHT22;6282;51.440;6.938;2022-07-23T06:10:06;17.10;99.90
12436;DHT22;6282;51.440;6.938;2022-07-23T06:12:34;17.20;99.90
12436;DHT22;6282;51.440;6.938;2022-07-23T06:15:02;17.20;99.90
12436;DHT22;6282;51.440;6.938;2022-07-23T06:17:30;17.30;99.90
12436;DHT22;6282;51.440;6.938;2022-07-23T06:19:56;17.30;99.90
12436;DHT22;6282;51.440;6.938;2022-07-23T06:22:23;17.50;99.90
12436;DHT22;6282;51.440;6.938;2022-07-23T06:24:50;17.50;99.90
12436;DHT22;6282;51.440;6.938;2022-07-23T06:27:17;17.60;99.90
12436;DHT22;6282;51.440;6.938;2022-07-23T06:29:44;17.60;99.90
12436;DHT22;6282;51.440;6.938;2022-07-23T06:32:12;17.80;99.90
12436;DHT22;6282;51.440;6.938;2022-07-23T06:34:39;17.70;99.90
12436;DHT22;6282;51.440;6.938;2022-07-23T06:37:06;17.70;99.90
12436;DHT22;6282;51.440;6.938;2022-07-23T06:39:33;17.80;99.90
12436;DHT22;6282;51.440;6.938;2022-07-23T06:42:00;18.00;99.90
12436;DHT22;6282;51.440;6.938;2022-07-23T06:44:27;18.10;99.90
12436;DHT22;6282;51.440;6.938;2022-07-23T06:46:54;18.20;99.90
12436;DHT22;6282;51.440;6.938;2022-07-23T06:49:23;18.40;99.90
12436;DHT22;6282;51.440;6.938;2022-07-23T06:51:49;18.40;99.90
12436;DHT22;6282;51.440;6.938;2022-07-23T06:54:16;18.30;99.90
12436;DHT22;6282;51.440;6.938;2022-07-23T06:56:43;18.50;99.90
12436;DHT22;6282;51.440;6.938;2022-07-23T06:59:10;18.60;99.90
12436;DHT22;6282;51.440;6.938;2022-07-23T07:01:37;18.50;99.90
12436;DHT22;6282;51.440;6.938;2022-07-23T07:04:04;18.80;99.90
12436;DHT22;6282;51.440;6.938;2022-07-23T07:06:32;18.80;99.90
12436;DHT22;6282;51.440;6.938;2022-07-23T07:08:59;18.40;99.90
12436;DHT22;6282;51.440;6.938;2022-07-23T07:11:26;18.40;99.90
12436;DHT22;6282;51.440;6.938;2022-07-23T07:13:53;18.90;99.90
12436;DHT22;6282;51.440;6.938;2022-07-23T07:16:20;18.60;99.90
12436;DHT22;6282;51.440;6.938;2022-07-23T07:18:47;19.10;99.90
12436;DHT22;6282;51.440;6.938;2022-07-23T07:21:14;20.30;99.90
12436;DHT22;6282;51.440;6.938;2022-07-23T07:23:42;20.60;99.90
12436;DHT22;6282;51.440;6.938;2022-07-23T07:26:09;20.60;99.90
12436;DHT22;6282;51.440;6.938;2022-07-23T07:28:36;21.70;99.90
12436;DHT22;6282;51.440;6.938;2022-07-23T07:31:03;21.40;99.90
12436;DHT22;6282;51.440;6.938;2022-07-23T07:33:30;20.60;99.90
12436;DHT22;6282;51.440;6.938;2022-07-23T07:35:57;20.20;99.90
12436;DHT22;6282;51.440;6.938;2022-07-23T07:38:24;19.80;99.90
12436;DHT22;6282;51.440;6.938;2022-07-23T07:40:52;20.70;99.90
12436;DHT22;6282;51.440;6.938;2022-07-23T07:43:19;21.50;99.90
12436;DHT22;6282;51.440;6.938;2022-07-23T07:45:46;22.30;99.90
12436;DHT22;6282;51.440;6.938;2022-07-23T07:48:13;21.10;1.00
12436;DHT22;6282;51.440;6.938;2022-07-23T07:50:39;21.80;1.00
12436;DHT22;6282;51.440;6.938;2022-07-23T07:53:19;22.20;99.90
12436;DHT22;6282;51.440;6.938;2022-07-23T07:56:06;22.70;1.00
12436;DHT22;6282;51.440;6.938;2022-07-23T07:58:33;22.80;1.00
12436;DHT22;6282;51.440;6.938;2022-07-23T08:01:00;23.00;1.00
12436;DHT22;6282;51.440;6.938;2022-07-23T08:03:28;22.80;1.00
12436;DHT22;6282;51.440;6.938;2022-07-23T08:05:55;22.60;99.90
12436;DHT22;6282;51.440;6.938;2022-07-23T08:08:22;21.90;99.90
12436;DHT22;6282;51.440;6.938;2022-07-23T08:10:48;21.10;99.90
12436;DHT22;6282;51.440;6.938;2022-07-23T08:13:17;22.10;99.90
12436;DHT22;6282;51.440;6.938;2022-07-23T08:15:44;23.30;99.90
12436;DHT22;6282;51.440;6.938;2022-07-23T08:18:11;23.70;1.00
12436;DHT22;6282;51.440;6.938;2022-07-23T08:20:38;23.70;1.00
12436;DHT22;6282;51.440;6.938;2022-07-23T08:23:06;24.30;1.00
12436;DHT22;6282;51.440;6.938;2022-07-23T08:25:35;23.10;1.00
12436;DHT22;6282;51.440;6.938;2022-07-23T08:28:05;23.00;1.00
12436;DHT22;6282;51.440;6.938;2022-07-23T08:30:34;23.70;99.90
12436;DHT22;6282;51.440;6.938;2022-07-23T08:33:03;24.30;99.90
12436;DHT22;6282;51.440;6.938;2022-07-23T08:35:31;24.60;99.90
12436;DHT22;6282;51.440;6.938;2022-07-23T08:38:00;25.00;99.90
12436;DHT22;6282;51.440;6.938;2022-07-23T08:40:29;25.00;84.90
12436;DHT22;6282;51.440;6.938;2022-07-23T08:42:57;23.80;38.30
12436;DHT22;6282;51.440;6.938;2022-07-23T08:45:25;24.30;1.00
12436;DHT22;6282;51.440;6.938;2022-07-23T08:47:55;25.00;1.00
12436;DHT22;6282;51.440;6.938;2022-07-23T08:50:23;25.40;1.00
12436;DHT22;6282;51.440;6.938;2022-07-23T08:52:52;24.90;1.00
12436;DHT22;6282;51.440;6.938;2022-07-23T08:55:20;25.10;1.00
12436;DHT22;6282;51.440;6.938;2022-07-23T08:57:49;25.50;1.00
12436;DHT22;6282;51.440;6.938;2022-07-23T09:00:17;25.80;1.00
12436;DHT22;6282;51.440;6.938;2022-07-23T09:02:45;25.70;1.00
12436;DHT22;6282;51.440;6.938;2022-07-23T09:05:14;26.10;1.00
12436;DHT22;6282;51.440;6.938;2022-07-23T09:08:05;25.70;1.00
12436;DHT22;6282;51.440;6.938;2022-07-23T09:10:46;25.40;1.00
12436;DHT22;6282;51.440;6.938;2022-07-23T09:13:29;25.50;99.90
12436;DHT22;6282;51.440;6.938;2022-07-23T09:15:59;25.70;99.90
12436;DHT22;6282;51.440;6.938;2022-07-23T09:18:38;25.40;99.90
12436;DHT22;6282;51.440;6.938;2022-07-23T09:21:16;25.40;99.90
12436;DHT22;6282;51.440;6.938;2022-07-23T09:23:45;25.40;99.90
12436;DHT22;6282;51.440;6.938;2022-07-23T09:26:24;25.60;99.90
12436;DHT22;6282;51.440;6.938;2022-07-23T09:28:54;26.00;99.90
12436;DHT22;6282;51.440;6.938;2022-07-23T09:31:21;26.10;99.90
12436;DHT22;6282;51.440;6.938;2022-07-23T09:33:48;26.50;99.90
12436;DHT22;6282;51.440;6.938;2022-07-23T09:36:27;25.70;99.90
12436;DHT22;6282;51.440;6.938;2022-07-23T09:38:54;26.30;99.90
12436;DHT22;6282;51.440;6.938;2022-07-23T09:41:21;25.20;99.90
12436;DHT22;6282;51.440;6.938;2022-07-23T09:43:54;25.50;99.90
12436;DHT22;6282;51.440;6.938;2022-07-23T09:46:23;25.90;99.90
12436;DHT22;6282;51.440;6.938;2022-07-23T09:48:50;25.40;99.90
12436;DHT22;6282;51.440;6.938;2022-07-23T09:51:19;26.10;99.90
12436;DHT22;6282;51.440;6.938;2022-07-23T09:53:53;26.10;99.90
12436;DHT22;6282;51.440;6.938;2022-07-23T09:56:20;26.50;99.90
12436;DHT22;6282;51.440;6.938;2022-07-23T09:58:50;25.70;99.90
12436;DHT22;6282;51.440;6.938;2022-07-23T10:01:17;25.60;99.90
12436;DHT22;6282;51.440;6.938;2022-07-23T10:03:46;25.30;99.90
12436;DHT22;6282;51.440;6.938;2022-07-23T10:06:13;25.10;99.90
12436;DHT22;6282;51.440;6.938;2022-07-23T10:08:43;25.60;99.90
12436;DHT22;6282;51.440;6.938;2022-07-23T10:11:11;24.90;99.90
12436;DHT22;6282;51.440;6.938;2022-07-23T10:13:40;24.20;99.90
12436;DHT22;6282;51.440;6.938;2022-07-23T10:16:18;23.50;99.90
12436;DHT22;6282;51.440;6.938;2022-07-23T10:18:46;23.90;99.90
12436;DHT22;6282;51.440;6.938;2022-07-23T10:21:16;23.70;99.90
12436;DHT22;6282;51.440;6.938;2022-07-23T10:23:51;23.90;99.90
12436;DHT22;6282;51.440;6.938;2022-07-23T10:26:27;23.50;99.90
12436;DHT22;6282;51.440;6.938;2022-07-23T10:29:06;23.60;99.90
12436;DHT22;6282;51.440;6.938;2022-07-23T10:31:46;23.20;99.90
12436;DHT22;6282;51.440;6.938;2022-07-23T10:34:17;23.00;99.90
12436;DHT22;6282;51.440;6.938;2022-07-23T10:36:49;23.20;99.90
12436;DHT22;6282;51.440;6.938;2022-07-23T10:39:22;23.30;99.90
12436;DHT22;6282;51.440;6.938;2022-07-23T10:41:51;23.60;99.90
12436;DHT22;6282;51.440;6.938;2022-07-23T10:44:19;23.60;99.90
12436;DHT22;6282;51.440;6.938;2022-07-23T10:46:55;24.00;99.90
12436;DHT22;6282;51.440;6.938;2022-07-23T10:49:29;23.80;99.90
12436;DHT22;6282;51.440;6.938;2022-07-23T10:52:21;23.50;99.90
12436;DHT22;6282;51.440;6.938;2022-07-23T10:54:51;23.50;97.30
12436;DHT22;6282;51.440;6.938;2022-07-23T10:57:19;23.30;99.90
12436;DHT22;6282;51.440;6.938;2022-07-23T11:00:16;23.10;96.70
12436;DHT22;6282;51.440;6.938;2022-07-23T11:02:45;23.20;99.90
12436;DHT22;6282;51.440;6.938;2022-07-23T11:05:16;23.50;99.90
12436;DHT22;6282;51.440;6.938;2022-07-23T11:10:54;23.30;73.90
12436;DHT22;6282;51.440;6.938;2022-07-23T11:13:45;23.20;99.90
12436;DHT22;6282;51.440;6.938;2022-07-23T11:16:20;23.10;97.90
12436;DHT22;6282;51.440;6.938;2022-07-23T11:19:07;23.10;85.60
12436;DHT22;6282;51.440;6.938;2022-07-23T11:21:48;23.50;99.90
12436;DHT22;6282;51.440;6.938;2022-07-23T11:24:20;23.60;59.80
12436;DHT22;6282;51.440;6.938;2022-07-23T11:26:53;23.80;79.40
12436;DHT22;6282;51.440;6.938;2022-07-23T11:29:46;23.80;70.30
12436;DHT22;6282;51.440;6.938;2022-07-23T11:32:32;24.10;66.70
12436;DHT22;6282;51.440;6.938;2022-07-23T11:35:01;24.00;60.10
12436;DHT22;6282;51.440;6.938;2022-07-23T11:37:34;23.60;82.00
12436;DHT22;6282;51.440;6.938;2022-07-23T11:40:04;24.00;75.60
12436;DHT22;6282;51.440;6.938;2022-07-23T11:42:34;23.90;68.90
12436;DHT22;6282;51.440;6.938;2022-07-23T11:45:00;23.80;72.60
12436;DHT22;6282;51.440;6.938;2022-07-23T11:47:28;23.50;69.30
12436;DHT22;6282;51.440;6.938;2022-07-23T11:49:55;23.70;53.80
12436;DHT22;6282;51.440;6.938;2022-07-23T11:52:23;24.00;99.90
12436;DHT22;6282;51.440;6.938;2022-07-23T11:54:51;23.90;34.30
12436;DHT22;6282;51.440;6.938;2022-07-23T11:57:19;23.90;52.10
12436;DHT22;6282;51.440;6.938;2022-07-23T11:59:51;23.90;19.00
12436;DHT22;6282;51.440;6.938;2022-07-23T12:02:19;24.20;38.00
12436;DHT22;6282;51.440;6.938;2022-07-23T12:04:49;24.00;30.70
12436;DHT22;6282;51.440;6.938;2022-07-23T12:07:30;23.90;14.00
12436;DHT22;6282;51.440;6.938;2022-07-23T12:09:59;24.20;29.70
12436;DHT22;6282;51.440;6.938;2022-07-23T12:12:26;24.40;32.60
12436;DHT22;6282;51.440;6.938;2022-07-23T12:14:57;24.20;18.80
12436;DHT22;6282;51.440;6.938;2022-07-23T12:17:28;24.40;11.10
12436;DHT22;6282;51.440;6.938;2022-07-23T12:19:56;24.70;4.50
12436;DHT22;6282;51.440;6.938;2022-07-23T12:22:24;24.60;1.00
12436;DHT22;6282;51.440;6.938;2022-07-23T12:24:56;24.30;1.00
12436;DHT22;6282;51.440;6.938;2022-07-23T12:27:24;24.80;1.00
12436;DHT22;6282;51.440;6.938;2022-07-23T12:29:51;24.50;1.00
12436;DHT22;6282;51.440;6.938;2022-07-23T12:32:22;24.60;1.00
12436;DHT22;6282;51.440;6.938;2022-07-23T12:34:51;24.40;1.00
12436;DHT22;6282;51.440;6.938;2022-07-23T12:37:28;24.30;4.50
12436;DHT22;6282;51.440;6.938;2022-07-23T12:39:55;24.60;13.10
12436;DHT22;6282;51.440;6.938;2022-07-23T12:42:22;24.50;1.00
12436;DHT22;6282;51.440;6.938;2022-07-23T12:45:07;24.50;1.00
12436;DHT22;6282;51.440;6.938;2022-07-23T12:47:59;24.40;1.00
12436;DHT22;6282;51.440;6.938;2022-07-23T12:50:36;24.00;1.00
12436;DHT22;6282;51.440;6.938;2022-07-23T12:53:05;24.00;24.20
12436;DHT22;6282;51.440;6.938;2022-07-23T12:55:32;24.40;1.70
12436;DHT22;6282;51.440;6.938;2022-07-23T12:58:04;24.60;1.00
12436;DHT22;6282;51.440;6.938;2022-07-23T13:00:31;24.50;1.00
12436;DHT22;6282;51.440;6.938;2022-07-23T13:03:00;24.60;1.00
12436;DHT22;6282;51.440;6.938;2022-07-23T13:05:26;24.60;1.00
12436;DHT22;6282;51.440;6.938;2022-07-23T13:07:53;24.40;1.00
12436;DHT22;6282;51.440;6.938;2022-07-23T13:10:20;24.00;1.00
12436;DHT22;6282;51.440;6.938;2022-07-23T13:12:47;23.70;1.00
12436;DHT22;6282;51.440;6.938;2022-07-23T13:15:14;23.90;1.00
12436;DHT22;6282;51.440;6.938;2022-07-23T13:17:41;24.30;1.00
12436;DHT22;6282;51.440;6.938;2022-07-23T13:20:11;24.30;1.00
12436;DHT22;6282;51.440;6.938;2022-07-23T13:22:38;24.40;1.00
12436;DHT22;6282;51.440;6.938;2022-07-23T13:25:06;24.70;1.00
12436;DHT22;6282;51.440;6.938;2022-07-23T13:27:33;24.90;1.00
12436;DHT22;6282;51.440;6.938;2022-07-23T13:30:00;25.10;1.00
12436;DHT22;6282;51.440;6.938;2022-07-23T13:32:27;25.00;1.00
12436;DHT22;6282;51.440;6.938;2022-07-23T13:34:54;24.70;1.00
12436;DHT22;6282;51.440;6.938;2022-07-23T13:37:22;24.70;1.00
12436;DHT22;6282;51.440;6.938;2022-07-23T13:39:49;24.70;1.00
12436;DHT22;6282;51.440;6.938;2022-07-23T13:42:16;25.20;1.00
12436;DHT22;6282;51.440;6.938;2022-07-23T13:44:43;25.10;1.00
12436;DHT22;6282;51.440;6.938;2022-07-23T13:47:10;24.60;1.00
12436;DHT22;6282;51.440;6.938;2022-07-23T13:49:37;24.90;1.00
12436;DHT22;6282;51.440;6.938;2022-07-23T13:52:04;24.80;1.00
12436;DHT22;6282;51.440;6.938;2022-07-23T13:54:33;24.60;1.00
12436;DHT22;6282;51.440;6.938;2022-07-23T13:57:00;24.50;1.00
12436;DHT22;6282;51.440;6.938;2022-07-23T13:59:26;24.60;1.00
12436;DHT22;6282;51.440;6.938;2022-07-23T14:01:54;24.60;1.00
12436;DHT22;6282;51.440;6.938;2022-07-23T14:04:21;24.60;1.00
12436;DHT22;6282;51.440;6.938;2022-07-23T14:06:48;24.80;1.00
12436;DHT22;6282;51.440;6.938;2022-07-23T14:09:15;25.10;1.00
12436;DHT22;6282;51.440;6.938;2022-07-23T14:11:43;24.90;1.00
12436;DHT22;6282;51.440;6.938;2022-07-23T14:14:10;24.90;1.00
12436;DHT22;6282;51.440;6.938;2022-07-23T14:16:37;25.00;1.00
12436;DHT22;6282;51.440;6.938;2022-07-23T14:19:04;25.20;15.20
12436;DHT22;6282;51.440;6.938;2022-07-23T14:21:31;25.30;1.00
12436;DHT22;6282;51.440;6.938;2022-07-23T14:23:58;25.00;1.00
12436;DHT22;6282;51.440;6.938;2022-07-23T14:26:25;25.40;1.00
12436;DHT22;6282;51.440;6.938;2022-07-23T14:28:54;25.20;8.30
12436;DHT22;6282;51.440;6.938;2022-07-23T14:31:21;25.10;1.00
12436;DHT22;6282;51.440;6.938;2022-07-23T14:33:48;25.00;1.00
12436;DHT22;6282;51.440;6.938;2022-07-23T14:36:15;25.70;1.00
12436;DHT22;6282;51.440;6.938;2022-07-23T14:38:43;25.80;10.40
12436;DHT22;6282;51.440;6.938;2022-07-23T14:41:10;25.80;38.50
12436;DHT22;6282;51.440;6.938;2022-07-23T14:43:37;25.70;65.60
12436;DHT22;6282;51.440;6.938;2022-07-23T14:46:05;25.70;22.40
12436;DHT22;6282;51.440;6.938;2022-07-23T14:48:32;25.60;45.90
12436;DHT22;6282;51.440;6.938;2022-07-23T14:51:00;25.50;59.00
12436;DHT22;6282;51.440;6.938;2022-07-23T14:53:26;25.40;51.40
12436;DHT22;6282;51.440;6.938;2022-07-23T14:55:53;25.80;59.80
12436;DHT22;6282;51.440;6.938;2022-07-23T14:58:22;26.20;98.60
12436;DHT22;6282;51.440;6.938;2022-07-23T15:00:49;25.80;87.90
12436;DHT22;6282;51.440;6.938;2022-07-23T15:03:18;25.50;91.10
12436;DHT22;6282;51.440;6.938;2022-07-23T15:05:44;25.90;92.10
12436;DHT22;6282;51.440;6.938;2022-07-23T15:08:11;25.70;89.80
12436;DHT22;6282;51.440;6.938;2022-07-23T15:10:38;25.90;99.90
12436;DHT22;6282;51.440;6.938;2022-07-23T15:13:05;25.90;99.90
12436;DHT22;6282;51.440;6.938;2022-07-23T15:15:32;25.90;89.30
12436;DHT22;6282;51.440;6.938;2022-07-23T15:17:59;25.70;89.40
12436;DHT22;6282;51.440;6.938;2022-07-23T15:20:27;25.40;92.30
12436;DHT22;6282;51.440;6.938;2022-07-23T15:22:54;25.60;64.70
12436;DHT22;6282;51.440;6.938;2022-07-23T15:25:21;25.70;59.30
12436;DHT22;6282;51.440;6.938;2022-07-23T15:27:48;25.80;88.10
12436;DHT22;6282;51.440;6.938;2022-07-23T15:30:15;25.70;85.70
12436;DHT22;6282;51.440;6.938;2022-07-23T15:32:42;25.50;48.20
12436;DHT22;6282;51.440;6.938;2022-07-23T15:35:08;25.80;74.60
12436;DHT22;6282;51.440;6.938;2022-07-23T15:37:37;26.00;63.00
12436;DHT22;6282;51.440;6.938;2022-07-23T15:40:05;25.80;66.90
12436;DHT22;6282;51.440;6.938;2022-07-23T15:42:32;26.00;94.40
12436;DHT22;6282;51.440;6.938;2022-07-23T15:44:59;25.70;85.00
12436;DHT22;6282;51.440;6.938;2022-07-23T15:47:26;25.80;51.90
12436;DHT22;6282;51.440;6.938;2022-07-23T15:49:53;26.10;53.80
12436;DHT22;6282;51.440;6.938;2022-07-23T15:52:20;26.10;68.40
12436;DHT22;6282;51.440;6.938;2022-07-23T15:54:49;25.90;74.10
12436;DHT22;6282;51.440;6.938;2022-07-23T15:57:16;25.80;41.30
12436;DHT22;6282;51.440;6.938;2022-07-23T15:59:43;25.80;43.90
12436;DHT22;6282;51.440;6.938;2022-07-23T16:02:11;25.80;65.10